createdAt,value
2022-12-15T00:00:24.679Z,99299.39
2022-12-15T00:03:31.404Z,99294.06
2022-12-15T00:06:19.792Z,99291.13
2022-12-15T00:09:09.821Z,99287.77
2022-12-15T00:12:00.375Z,99285.45
2022-12-15T00:14:47.524Z,99290.15
2022-12-15T00:17:34.560Z,99296.99
2022-12-15T00:20:22.138Z,99305.45
2022-12-15T00:23:08.738Z,99311.88
2022-12-15T00:25:55.382Z,99321.14
2022-12-15T00:28:41.951Z,99320.58
2022-12-15T00:31:28.614Z,99323.48
2022-12-15T00:34:14.855Z,99324.09
2022-12-15T00:37:01.626Z,99325.38
2022-12-15T00:39:29.668Z,99323.41
2022-12-15T00:41:57.807Z,99316.88
2022-12-15T00:44:25.690Z,99312.33
2022-12-15T00:46:56.646Z,99315.70
2022-12-15T00:49:45.196Z,99316.78
2022-12-15T00:52:33.419Z,99318.69
2022-12-15T00:55:20.247Z,99327.04
2022-12-15T00:58:06.925Z,99326.95
2022-12-15T01:00:53.234Z,99326.63
2022-12-15T01:03:42.198Z,99329.54
2022-12-15T01:06:35.374Z,99332.50
2022-12-15T01:09:25.058Z,99335.25
2022-12-15T01:12:11.929Z,99343.01
2022-12-15T01:14:58.283Z,99349.89
2022-12-15T01:17:44.873Z,99348.79
2022-12-15T01:20:18.064Z,99350.70
2022-12-15T01:22:53.051Z,99354.84
2022-12-15T01:25:24.315Z,99352.91
2022-12-15T01:27:52.788Z,99354.07
2022-12-15T01:30:26.785Z,99355.42
2022-12-15T01:32:54.777Z,99354.24
2022-12-15T01:35:22.886Z,99351.20
2022-12-15T01:37:50.861Z,99344.75
2022-12-15T01:40:39.366Z,99340.42
2022-12-15T01:43:14.165Z,99338.30
2022-12-15T01:45:52.498Z,99342.04
2022-12-15T01:48:29.803Z,99341.23
2022-12-15T01:51:06.723Z,99345.52
2022-12-15T01:53:57.338Z,99349.76
2022-12-15T01:56:30.072Z,99352.59
2022-12-15T01:59:05.118Z,99354.41
2022-12-15T02:01:33.181Z,99351.73
2022-12-15T02:04:01.115Z,99349.13
2022-12-15T02:06:29.954Z,99343.66
2022-12-15T02:09:00.831Z,99349.21
2022-12-15T02:12:07.047Z,99345.08
2022-12-15T02:14:46.920Z,99343.51
2022-12-15T02:17:21.009Z,99349.67
2022-12-15T02:20:23.311Z,99366.96
2022-12-15T02:23:09.574Z,99379.59
2022-12-15T02:25:58.757Z,99382.42
2022-12-15T02:28:52.205Z,99389.68
2022-12-15T02:31:51.445Z,99390.98
2022-12-15T02:34:27.702Z,99389.56
2022-12-15T02:37:08.948Z,99388.00
2022-12-15T02:39:37.168Z,99387.86
2022-12-15T02:42:05.119Z,99382.25
2022-12-15T02:45:05.628Z,99380.73
2022-12-15T02:48:12.209Z,99390.83
2022-12-15T02:50:51.020Z,99386.92
2022-12-15T02:53:28.790Z,99386.82
2022-12-15T02:56:18.370Z,99393.14
2022-12-15T02:59:01.863Z,99400.52
2022-12-15T03:01:36.861Z,99400.71
2022-12-15T03:04:09.263Z,99404.76
2022-12-15T03:06:37.795Z,99394.99
2022-12-15T03:09:05.989Z,99389.06
2022-12-15T03:11:34.573Z,99381.05
2022-12-15T03:14:02.702Z,99382.14
2022-12-15T03:16:30.627Z,99385.64
2022-12-15T03:18:58.530Z,99385.02
2022-12-15T03:21:27.941Z,99383.25
2022-12-15T03:23:56.110Z,99379.45
2022-12-15T03:26:24.618Z,99380.30
2022-12-15T03:28:52.993Z,99375.81
2022-12-15T03:31:21.000Z,99375.96
2022-12-15T03:33:48.890Z,99376.06
2022-12-15T03:36:16.706Z,99377.86
2022-12-15T03:38:44.689Z,99380.03
2022-12-15T03:41:12.564Z,99386.05
2022-12-15T03:43:40.575Z,99391.38
2022-12-15T03:46:08.814Z,99395.32
2022-12-15T03:48:37.109Z,99394.80
2022-12-15T03:51:04.987Z,99395.49
2022-12-15T03:53:33.046Z,99398.17
2022-12-15T03:56:01.376Z,99396.39
2022-12-15T03:58:30.220Z,99403.73
2022-12-15T04:00:58.798Z,99404.98
2022-12-15T04:03:26.990Z,99411.85
2022-12-15T04:05:55.274Z,99411.52
2022-12-15T04:08:26.724Z,99409.98
2022-12-15T04:10:55.009Z,99412.35
2022-12-15T04:13:22.912Z,99415.98
2022-12-15T04:15:50.826Z,99418.73
2022-12-15T04:18:18.800Z,99420.86
2022-12-15T04:20:46.991Z,99423.87
2022-12-15T04:23:18.315Z,99429.46
2022-12-15T04:26:04.898Z,99432.70
2022-12-15T04:28:51.742Z,99442.49
2022-12-15T04:31:56.509Z,99447.85
2022-12-15T04:34:43.151Z,99449.33
2022-12-15T04:37:32.343Z,99454.73
2022-12-15T04:40:18.773Z,99460.60
2022-12-15T04:43:06.939Z,99467.14
2022-12-15T04:45:53.456Z,99467.80
2022-12-15T04:48:40.052Z,99471.21
2022-12-15T04:51:26.132Z,99471.40
2022-12-15T04:54:12.222Z,99470.59
2022-12-15T04:56:58.390Z,99477.20
2022-12-15T04:59:45.329Z,99476.07
2022-12-15T05:02:31.984Z,99475.25
2022-12-15T05:05:18.820Z,99476.23
2022-12-15T05:08:05.568Z,99482.77
2022-12-15T05:10:52.290Z,99492.88
2022-12-15T05:13:38.649Z,99496.90
2022-12-15T05:16:25.416Z,99493.77
2022-12-15T05:19:11.785Z,99500.30
2022-12-15T05:21:58.289Z,99509.70
2022-12-15T05:24:45.600Z,99510.70
2022-12-15T05:27:31.801Z,99515.83
2022-12-15T05:30:18.276Z,99514.02
2022-12-15T05:32:46.604Z,99517.30
2022-12-15T05:35:18.104Z,99523.47
2022-12-15T05:37:46.078Z,99529.22
2022-12-15T05:40:13.987Z,99534.68
2022-12-15T05:42:41.989Z,99535.30
2022-12-15T05:45:10.476Z,99538.31
2022-12-15T05:47:38.512Z,99544.25
2022-12-15T05:50:07.065Z,99548.62
2022-12-15T05:52:35.631Z,99553.69
2022-12-15T05:55:03.939Z,99561.80
2022-12-15T05:57:32.248Z,99565.71
2022-12-15T06:00:00.345Z,99565.81
2022-12-15T06:02:31.192Z,99565.00
2022-12-15T06:04:59.953Z,99568.83
2022-12-15T06:07:27.938Z,99570.27
2022-12-15T06:09:55.798Z,99573.23
2022-12-15T06:12:23.949Z,99576.89
2022-12-15T06:14:52.278Z,99575.58
2022-12-15T06:17:20.248Z,99580.22
2022-12-15T06:19:48.232Z,99582.63
2022-12-15T06:22:16.261Z,99583.64
2022-12-15T06:24:44.290Z,99590.27
2022-12-15T06:27:12.577Z,99595.55
2022-12-15T06:29:40.500Z,99603.32
2022-12-15T06:32:08.510Z,99607.46
2022-12-15T06:34:37.279Z,99611.94
2022-12-15T06:37:05.343Z,99618.35
2022-12-15T06:39:33.244Z,99619.75
2022-12-15T06:42:01.416Z,99620.65
2022-12-15T06:44:29.260Z,99625.15
2022-12-15T06:46:57.317Z,99627.05
2022-12-15T06:49:25.301Z,99629.27
2022-12-15T06:51:53.202Z,99637.31
2022-12-15T06:54:21.154Z,99637.46
2022-12-15T06:56:49.916Z,99638.09
2022-12-15T06:59:18.116Z,99636.06
2022-12-15T07:01:46.329Z,99633.66
2022-12-15T07:04:15.251Z,99634.71
2022-12-15T07:06:43.389Z,99639.40
2022-12-15T07:09:16.357Z,99645.22
2022-12-15T07:11:45.405Z,99650.98
2022-12-15T07:14:13.419Z,99652.28
2022-12-15T07:16:41.439Z,99653.39
2022-12-15T07:19:13.646Z,99651.94
2022-12-15T07:21:41.686Z,99651.67
2022-12-15T07:24:12.014Z,99653.19
2022-12-15T07:26:41.315Z,99658.18
2022-12-15T07:29:11.806Z,99660.63
2022-12-15T07:31:40.169Z,99662.54
2022-12-15T07:34:08.124Z,99665.43
2022-12-15T07:36:36.181Z,99665.70
2022-12-15T07:39:05.407Z,99672.87
2022-12-15T07:41:33.724Z,99681.23
2022-12-15T07:44:02.545Z,99689.44
2022-12-15T07:46:30.737Z,99697.00
2022-12-15T07:48:58.945Z,99703.17
2022-12-15T07:51:27.807Z,99713.83
2022-12-15T07:53:56.229Z,99719.55
2022-12-15T07:56:24.581Z,99723.08
2022-12-15T07:58:52.848Z,99725.50
2022-12-15T08:01:20.826Z,99728.57
2022-12-15T08:03:49.308Z,99729.91
2022-12-15T08:06:17.696Z,99725.21
2022-12-15T08:08:50.802Z,99730.46
2022-12-15T08:11:22.220Z,99732.06
2022-12-15T08:14:10.669Z,99745.81
2022-12-15T08:16:39.834Z,99752.89
2022-12-15T08:19:13.795Z,99754.83
2022-12-15T08:21:43.331Z,99766.56
2022-12-15T08:24:12.154Z,99772.21
2022-12-15T08:26:41.897Z,99773.92
2022-12-15T08:29:49.579Z,99779.45
2022-12-15T08:32:06.032Z,99785.45
2022-12-15T08:34:34.256Z,99797.63
2022-12-15T08:37:02.214Z,99807.08
2022-12-15T08:39:30.420Z,99812.23
2022-12-15T08:41:58.293Z,99810.14
2022-12-15T08:44:26.236Z,99803.23
2022-12-15T08:46:54.433Z,99795.67
2022-12-15T08:49:22.766Z,99794.97
2022-12-15T08:51:51.495Z,99796.06
2022-12-15T08:54:20.570Z,99801.65
2022-12-15T08:56:49.054Z,99809.88
2022-12-15T08:59:17.271Z,99809.84
2022-12-15T09:01:45.315Z,99813.23
2022-12-15T09:04:13.777Z,99821.34
2022-12-15T09:06:42.084Z,99826.16
2022-12-15T09:09:12.394Z,99836.50
2022-12-15T09:11:41.037Z,99844.28
2022-12-15T09:14:09.081Z,99847.80
2022-12-15T09:16:37.179Z,99848.11
2022-12-15T09:19:05.626Z,99856.27
2022-12-15T09:21:34.443Z,99864.55
2022-12-15T09:24:03.984Z,99868.65
2022-12-15T09:26:34.348Z,99869.52
2022-12-15T09:29:02.435Z,99872.11
2022-12-15T09:31:37.572Z,99874.88
2022-12-15T09:34:05.652Z,99868.47
2022-12-15T09:36:33.789Z,99861.38
2022-12-15T09:39:02.805Z,99864.30
2022-12-15T09:41:33.287Z,99871.31
2022-12-15T09:44:14.987Z,99870.63
2022-12-15T09:47:23.594Z,99868.84
2022-12-15T09:49:56.156Z,99859.81
2022-12-15T09:52:30.352Z,99862.36
2022-12-15T09:54:59.429Z,99870.01
2022-12-15T09:57:44.741Z,99876.45
2022-12-15T10:00:25.732Z,99878.44
2022-12-15T10:03:03.854Z,99874.34
2022-12-15T10:06:06.898Z,99866.53
2022-12-15T10:08:31.130Z,99865.38
2022-12-15T10:11:02.160Z,99870.64
2022-12-15T10:13:47.537Z,99869.33
2022-12-15T10:16:28.081Z,99868.73
2022-12-15T10:19:14.326Z,99861.65
2022-12-15T10:21:42.634Z,99856.13
2022-12-15T10:24:44.508Z,99846.52
2022-12-15T10:27:17.200Z,99840.81
2022-12-15T10:29:52.359Z,99835.86
2022-12-15T10:32:43.074Z,99833.02
2022-12-15T10:35:32.726Z,99823.58
2022-12-15T10:38:05.054Z,99822.00
2022-12-15T10:40:50.590Z,99819.94
2022-12-15T10:43:31.741Z,99819.11
2022-12-15T10:46:01.480Z,99819.96
2022-12-15T10:48:29.733Z,99821.69
2022-12-15T10:51:37.346Z,99829.04
2022-12-15T10:54:11.602Z,99828.83
2022-12-15T10:57:27.817Z,99830.11
2022-12-15T11:00:22.783Z,99831.63
2022-12-15T11:02:50.844Z,99833.88
2022-12-15T11:05:19.925Z,99831.48
2022-12-15T11:07:50.585Z,99825.72
2022-12-15T11:10:26.327Z,99830.31
2022-12-15T11:13:14.422Z,99832.80
2022-12-15T11:15:45.722Z,99826.23
2022-12-15T11:18:53.343Z,99824.86
2022-12-15T11:21:36.971Z,99833.66
2022-12-15T11:24:16.674Z,99839.44
2022-12-15T11:27:28.615Z,99844.89
2022-12-15T11:30:16.323Z,99847.19
2022-12-15T11:33:04.757Z,99851.46
2022-12-15T11:35:51.547Z,99855.44
2022-12-15T11:38:50.013Z,99846.98
2022-12-15T11:41:27.987Z,99842.08
2022-12-15T11:44:17.957Z,99842.91
2022-12-15T11:47:11.162Z,99840.73
2022-12-15T11:50:23.745Z,99843.89
2022-12-15T11:53:11.221Z,99839.59
2022-12-15T11:56:18.138Z,99834.77
2022-12-15T11:59:23.794Z,99835.09
2022-12-15T12:02:02.979Z,99836.42
2022-12-15T12:04:31.344Z,99836.27
2022-12-15T12:07:21.068Z,99831.10
2022-12-15T12:10:21.929Z,99828.70
2022-12-15T12:13:12.355Z,99823.23
2022-12-15T12:15:43.558Z,99819.30
2022-12-15T12:18:36.765Z,99819.93
2022-12-15T12:21:14.507Z,99818.04
2022-12-15T12:24:03.901Z,99813.71
2022-12-15T12:26:45.241Z,99806.76
2022-12-15T12:29:26.117Z,99806.50
2022-12-15T12:31:56.446Z,99807.16
2022-12-15T12:34:40.846Z,99802.80
2022-12-15T12:37:27.992Z,99801.48
2022-12-15T12:40:03.456Z,99801.45
2022-12-15T12:42:40.607Z,99796.56
2022-12-15T12:45:13.877Z,99795.84
2022-12-15T12:47:50.087Z,99799.48
2022-12-15T12:50:24.381Z,99796.39
2022-12-15T12:53:03.440Z,99792.11
2022-12-15T12:55:40.256Z,99791.69
2022-12-15T12:58:34.296Z,99793.19
2022-12-15T13:01:11.228Z,99788.30
2022-12-15T13:03:40.471Z,99781.57
2022-12-15T13:06:40.867Z,99778.90
2022-12-15T13:09:17.488Z,99775.34
2022-12-15T13:11:49.108Z,99774.35
2022-12-15T13:14:30.691Z,99777.37
2022-12-15T13:17:28.526Z,99780.58
2022-12-15T13:19:56.467Z,99777.59
2022-12-15T13:22:24.396Z,99783.73
2022-12-15T13:24:52.395Z,99784.23
2022-12-15T13:27:20.454Z,99787.95
2022-12-15T13:30:09.935Z,99786.05
2022-12-15T13:32:41.630Z,99784.55
2022-12-15T13:35:13.198Z,99783.02
2022-12-15T13:37:49.044Z,99781.27
2022-12-15T13:40:24.215Z,99784.87
2022-12-15T13:43:05.520Z,99784.30
2022-12-15T13:45:50.707Z,99788.20
2022-12-15T13:48:36.288Z,99791.56
2022-12-15T13:51:25.739Z,99796.89
2022-12-15T13:54:09.944Z,99808.41
2022-12-15T13:56:46.561Z,99807.21
2022-12-15T13:59:34.096Z,99803.56
2022-12-15T14:02:02.343Z,99802.80
2022-12-15T14:04:30.362Z,99806.98
2022-12-15T14:07:02.014Z,99804.80
2022-12-15T14:09:35.886Z,99802.67
2022-12-15T14:12:08.076Z,99803.98
2022-12-15T14:14:42.968Z,99809.67
2022-12-15T14:17:15.377Z,99817.86
2022-12-15T14:19:51.073Z,99824.48
2022-12-15T14:22:28.261Z,99823.67
2022-12-15T14:25:21.112Z,99820.37
2022-12-15T14:27:51.023Z,99824.69
2022-12-15T14:30:25.607Z,99825.31
2022-12-15T14:33:01.673Z,99828.95
2022-12-15T14:35:36.879Z,99833.67
2022-12-15T14:38:09.162Z,99835.41
2022-12-15T14:40:39.908Z,99835.55
2022-12-15T14:43:11.828Z,99835.26
2022-12-15T14:45:40.070Z,99840.23
2022-12-15T14:51:02.588Z,99840.33
2022-12-15T14:53:36.615Z,99838.23
2022-12-15T14:56:27.568Z,99833.02
2022-12-15T14:59:06.318Z,99821.83
2022-12-15T15:01:40.881Z,99823.39
2022-12-15T15:04:29.380Z,99825.13
2022-12-15T15:07:01.190Z,99823.38
2022-12-15T15:09:38.353Z,99823.84
2022-12-15T15:12:45.771Z,99819.67
2022-12-15T15:15:24.704Z,99818.55
2022-12-15T15:18:00.417Z,99819.24
2022-12-15T15:20:36.548Z,99823.33
2022-12-15T15:23:07.382Z,99821.92
2022-12-15T15:25:40.233Z,99820.86
2022-12-15T15:28:12.006Z,99827.05
2022-12-15T15:30:57.936Z,99827.20
2022-12-15T15:33:26.893Z,99817.29
2022-12-15T15:36:04.509Z,99815.86
2022-12-15T15:38:35.042Z,99828.78
2022-12-15T15:41:18.211Z,99824.65
2022-12-15T15:43:47.190Z,99812.67
2022-12-15T15:46:19.795Z,99812.18
2022-12-15T15:48:55.314Z,99817.92
2022-12-15T15:51:28.344Z,99826.06
2022-12-15T15:54:00.247Z,99828.89
2022-12-15T15:56:28.723Z,99822.13
2022-12-15T15:58:57.881Z,99815.66
2022-12-15T16:01:25.995Z,99820.67
2022-12-15T16:03:54.165Z,99824.30
2022-12-15T16:06:24.428Z,99827.74
2022-12-15T16:08:53.975Z,99831.34
2022-12-15T16:11:23.093Z,99831.86
2022-12-15T16:13:51.631Z,99835.27
2022-12-15T16:16:22.977Z,99833.98
2022-12-15T16:18:51.279Z,99838.40
2022-12-15T16:21:20.435Z,99836.67
2022-12-15T16:23:49.445Z,99825.13
2022-12-15T16:26:25.866Z,99812.39
2022-12-15T16:28:54.271Z,99820.91
2022-12-15T16:31:40.892Z,99825.53
2022-12-15T16:34:09.756Z,99821.55
2022-12-15T16:36:38.330Z,99824.06
2022-12-15T16:39:24.287Z,99825.95
2022-12-15T16:41:54.315Z,99827.38
2022-12-15T16:44:23.330Z,99830.80
2022-12-15T16:46:51.383Z,99840.45
2022-12-15T16:49:19.566Z,99842.51
2022-12-15T16:51:50.838Z,99847.86
2022-12-15T16:54:30.603Z,99844.45
2022-12-15T16:57:00.032Z,99844.82
2022-12-15T16:59:36.087Z,99838.19
2022-12-15T17:02:27.993Z,99841.13
2022-12-15T17:04:56.379Z,99839.34
2022-12-15T17:07:27.628Z,99835.46
2022-12-15T17:09:56.433Z,99830.91
2022-12-15T17:12:24.418Z,99826.59
2022-12-15T17:14:52.891Z,99829.88
2022-12-15T17:17:21.363Z,99836.31
2022-12-15T17:20:27.459Z,99838.17
2022-12-15T17:22:38.556Z,99840.91
2022-12-15T17:25:16.237Z,99848.28
2022-12-15T17:27:45.135Z,99851.36
2022-12-15T17:30:15.659Z,99849.84
2022-12-15T17:32:44.474Z,99857.31
2022-12-15T17:35:12.693Z,99854.74
2022-12-15T17:37:40.895Z,99852.83
2022-12-15T17:40:20.793Z,99845.18
2022-12-15T17:42:49.682Z,99842.90
2022-12-15T17:45:24.808Z,99843.08
2022-12-15T17:47:52.779Z,99845.67
2022-12-15T17:50:21.210Z,99843.58
2022-12-15T17:52:49.547Z,99841.40
2022-12-15T17:55:19.951Z,99838.15
2022-12-15T17:57:47.940Z,99835.88
2022-12-15T18:00:17.579Z,99838.77
2022-12-15T18:02:45.661Z,99839.90
2022-12-15T18:05:14.345Z,99839.89
2022-12-15T18:07:42.770Z,99840.15
2022-12-15T18:10:41.032Z,99839.45
2022-12-15T18:13:20.282Z,99832.03
2022-12-15T18:15:49.616Z,99829.88
2022-12-15T18:18:20.805Z,99820.08
2022-12-15T18:20:51.350Z,99814.88
2022-12-15T18:23:30.987Z,99814.16
2022-12-15T18:26:02.873Z,99808.48
2022-12-15T18:28:35.540Z,99805.63
2022-12-15T18:31:19.707Z,99812.91
2022-12-15T18:33:47.943Z,99818.09
2022-12-15T18:36:16.307Z,99809.83
2022-12-15T18:38:44.589Z,99806.00
2022-12-15T18:41:17.859Z,99809.48
2022-12-15T18:43:47.600Z,99810.11
2022-12-15T18:46:17.147Z,99811.77
2022-12-15T18:48:45.458Z,99814.84
2022-12-15T18:51:18.012Z,99818.27
2022-12-15T18:53:48.847Z,99813.80
2022-12-15T18:56:19.363Z,99811.98
2022-12-15T18:58:47.946Z,99813.41
2022-12-15T19:01:16.511Z,99809.62
2022-12-15T19:03:44.536Z,99803.67
2022-12-15T19:06:34.947Z,99799.70
2022-12-15T19:09:14.654Z,99797.51
2022-12-15T19:12:04.799Z,99797.84
2022-12-15T19:14:42.924Z,99794.59
2022-12-15T19:17:32.232Z,99795.89
2022-12-15T19:20:19.380Z,99798.04
2022-12-15T19:22:48.795Z,99791.49
2022-12-15T19:25:26.620Z,99787.55
2022-12-15T19:27:59.724Z,99785.14
2022-12-15T19:30:30.973Z,99781.17
2022-12-15T19:32:59.260Z,99780.27
2022-12-15T19:35:28.048Z,99782.33
2022-12-15T19:37:58.711Z,99785.25
2022-12-15T19:40:28.435Z,99784.64
2022-12-15T19:42:56.761Z,99782.35
2022-12-15T19:45:28.030Z,99774.47
2022-12-15T19:47:56.559Z,99768.39
2022-12-15T19:50:29.349Z,99764.84
2022-12-15T19:53:01.084Z,99764.86
2022-12-15T19:55:32.945Z,99759.86
2022-12-15T19:58:20.001Z,99757.75
2022-12-15T20:00:51.666Z,99757.02
2022-12-15T20:03:20.729Z,99758.16
2022-12-15T20:05:51.945Z,99761.92
2022-12-15T20:08:23.491Z,99762.13
2022-12-15T20:10:53.938Z,99759.30
2022-12-15T20:13:22.558Z,99755.13
2022-12-15T20:15:50.839Z,99757.44
2022-12-15T20:18:19.187Z,99756.41
2022-12-15T20:20:48.910Z,99746.05
2022-12-15T20:23:26.283Z,99739.81
2022-12-15T20:25:56.253Z,99737.05
2022-12-15T20:28:28.726Z,99730.88
2022-12-15T20:30:58.199Z,99727.42
2022-12-15T20:33:26.191Z,99721.71
2022-12-15T20:35:54.302Z,99718.08
2022-12-15T20:38:32.211Z,99720.77
2022-12-15T20:41:01.991Z,99725.70
2022-12-15T20:43:31.795Z,99729.98
2022-12-15T20:46:05.832Z,99733.36
2022-12-15T20:48:36.583Z,99734.33
2022-12-15T20:51:09.502Z,99734.73
2022-12-15T20:53:38.954Z,99730.34
2022-12-15T20:56:07.643Z,99725.62
2022-12-15T20:58:39.352Z,99719.02
2022-12-15T21:01:29.164Z,99711.05
2022-12-15T21:03:58.744Z,99706.55
2022-12-15T21:06:28.493Z,99703.84
2022-12-15T21:08:56.979Z,99708.83
2022-12-15T21:11:32.527Z,99713.60
2022-12-15T21:14:04.456Z,99715.58
2022-12-15T21:16:32.838Z,99715.48
2022-12-15T21:19:19.710Z,99706.15
2022-12-15T21:21:54.939Z,99699.61
2022-12-15T21:24:27.264Z,99705.88
2022-12-15T21:26:55.555Z,99706.80
2022-12-15T21:29:26.372Z,99700.55
2022-12-15T21:31:54.871Z,99698.40
2022-12-15T21:34:22.830Z,99701.02
2022-12-15T21:36:55.061Z,99697.60
2022-12-15T21:39:34.110Z,99693.36
2022-12-15T21:42:07.130Z,99693.05
2022-12-15T21:44:36.499Z,99697.80
2022-12-15T21:47:24.970Z,99703.76
2022-12-15T21:49:52.887Z,99708.06
2022-12-15T21:52:25.976Z,99707.54
2022-12-15T21:54:53.864Z,99699.78
2022-12-15T21:57:23.108Z,99694.44
2022-12-15T21:59:51.890Z,99687.73
2022-12-15T22:02:26.999Z,99689.30
2022-12-15T22:04:55.617Z,99683.63
2022-12-15T22:07:23.546Z,99671.39
2022-12-15T22:09:51.822Z,99674.37
2022-12-15T22:12:22.887Z,99674.29
2022-12-15T22:14:52.101Z,99676.60
2022-12-15T22:17:22.163Z,99677.83
2022-12-15T22:19:50.507Z,99669.27
2022-12-15T22:22:18.333Z,99668.54
2022-12-15T22:24:46.313Z,99669.86
2022-12-15T22:27:23.376Z,99661.31
2022-12-15T22:29:52.228Z,99658.93
2022-12-15T22:32:20.360Z,99656.18
2022-12-15T22:34:48.366Z,99648.58
2022-12-15T22:37:16.548Z,99637.34
2022-12-15T22:39:44.882Z,99634.39
2022-12-15T22:42:17.314Z,99635.44
2022-12-15T22:44:45.569Z,99634.94
2022-12-15T22:47:13.794Z,99629.41
2022-12-15T22:49:42.629Z,99622.16
2022-12-15T22:52:19.452Z,99610.54
2022-12-15T22:54:47.998Z,99597.23
2022-12-15T22:57:22.824Z,99588.37
2022-12-15T23:00:03.159Z,99583.10
2022-12-15T23:02:33.756Z,99574.66
2022-12-15T23:05:02.373Z,99572.12
2022-12-15T23:07:30.407Z,99576.28
2022-12-15T23:10:16.932Z,99580.93
2022-12-15T23:12:44.840Z,99583.80
2022-12-15T23:15:31.640Z,99586.61
2022-12-15T23:17:59.586Z,99580.96
2022-12-15T23:20:27.498Z,99571.55
2022-12-15T23:22:55.693Z,99562.86
2022-12-15T23:25:23.616Z,99553.88
2022-12-15T23:27:51.657Z,99549.74
2022-12-15T23:30:20.455Z,99542.68
2022-12-15T23:32:48.939Z,99535.96
2022-12-15T23:35:16.839Z,99529.73
2022-12-15T23:37:44.907Z,99529.09
2022-12-15T23:40:20.025Z,99525.19
2022-12-15T23:42:48.989Z,99516.48
2022-12-15T23:45:17.064Z,99508.59
2022-12-15T23:47:45.159Z,99506.42
2022-12-15T23:50:13.098Z,99503.44
2022-12-15T23:52:41.471Z,99505.33
2022-12-15T23:55:10.250Z,99504.11
2022-12-15T23:57:39.444Z,99503.20
